Terminal Aerodrome Forecast
Issued by NWS

Home | Current Version | Previous Version | Text Only | Print | Product List | Glossary On
Versions: 1 2 3 4 5 6 7 8 9 10 11 12
000
FTUS43 KLSX 251129
TAFSUS
TAF
KSUS 251129Z 2512/2612 16004KT P6SM FEW250
     FM251500 16012G20KT P6SM SCT250
     FM251800 16015G27KT P6SM SCT250
     FM260000 16010G18KT P6SM SCT200
     FM260600 17008KT P6SM BKN100=

USA.gov is the U.S. government's official web portal to all federal, state and local government web resources and services.